Portada
METAR-TAF:

METAR-TAF

Aeroports :

Nova Orleans, Louisiana, Estats Units d'Amèrica

latitud: 30-02-58N, longitud: 090-01-44W, altitud: 2 m

Observació

L'informe es va fer fa 37 minuts, a les 06:53 UTC
Vent 17 kt del Est/Nord-Est
Temperatura 5°C
Humitat 48%
Pressió 1029 hPa
Visibilitat: 16.1 km
Cel clar

METAR: KNEW 220653Z AUTO 07017KT 10SM CLR 05/M05 A3038 RMK AO2 SLP282 T00501050

Hora: 01:30 (07:30 UTC)

Pronòstic

L'informe es va fer fa 2 hores i 5 minuts, a les 05:25 UTC
Pronòstic vàlid del 22 a les 06 UTC al 23 a les 06 UTC
Vent 18 kt del Est/Nord-Est
Visibilitat: 10 km
Cel clar
A partir de les 22 a les 1100 UTC
Vent 11 kt del Est/Nord-Est
Visibilitat: 10 km
Cel ennuvolat a una alçada de 25000 ft
A partir de les 23 a les 0100 UTC
Vent 9 kt del Est
Visibilitat: 10 km
Cel cobert a una alçada de 10000 ft
xàfecs en les proximitats

TAF: KNEW 220525Z 2206/2306 07018KT P6SM SKC FM221100 07011KT P6SM BKN250 FM230100 10009KT P6SM VCSH OVC100

Observacions i pronòstics meteorològics de més de 4000 aeroports (METAR i TAF).

Les estacions disponibles són els punts grocs i vermells al mapa.

Posi el ratolí al punt desitjat per veure el nom de l'estació.

Feu clic per veure les observacions i els pronòstics meteorològics.

Per canviar el mapa: feu clic els botons verds amb una creu de color negre per apropar; al botó verd amb un guió per allunyar la imatge; o en les fletxes verdes per a mapes adjacents.


METAR-TAF: